Sedgwick Reserve, California Weather observations

Data are for 10 minute period ending at time listed.
 Day   Time   Solar   Ave.   Ave.  Ave.  Vector  Max.   Baro.   Total    
  of    of     Rad.   Air    Rel.  Wind   Wind   Wind  Press.  Precip.   
Year   Day            Temp.  Hum.  Speed  Dir.   Gust                    
2016   (PST)  Kw/m2    F      %     mph   deg.    mph    mb.     in.     
-------------------------------------------------------------------------
 271   19:40   0.00   71.3    27    1.2   272     2.0   970.3    0.00 
 271   19:50   0.00   70.4    28    1.1    16     2.2   970.3    0.00 
 271   20:00   0.00   69.6    28    0.6   337     1.9   970.3    0.00 
 271   20:10   0.00   68.9    29    1.7   343     4.3   970.3    0.00 
 271   20:20   0.00   69.0    30    1.1   303     3.5   970.4    0.00 
 271   20:30   0.00   69.1    30    0.6   343     1.5   970.3    0.00 
 271   20:40   0.00   68.1    31    3.5   351     6.4   970.3    0.00 
 271   20:50   0.00   67.8    32    0.5   250     1.8   970.4    0.00 
 271   21:00   0.00   68.4    31    1.7     1     4.5   970.4    0.00 
 271   21:10   0.00   67.5    32    1.2   347     2.8   970.4    0.00 
 271   21:20   0.00   67.9    31    2.3     1     4.5   970.5    0.00 
 271   21:30   0.00   66.6    33    0.8   266     2.0   970.5    0.00 
 271   21:40   0.00   66.8    32    1.2   333     2.9   970.5    0.00 
 271   21:50   0.00   66.4    33    0.6   269     3.0   970.5    0.00 
 271   22:00   0.00   66.6    33    0.9   333     3.0   970.6    0.00 
 271   22:10   0.00   65.7    34    0.4     0     2.3   970.7    0.00 
 271   22:20   0.00   64.9    34    0.5   313     1.8   970.7    0.00 
 271   22:30   0.00   64.6    35    3.2     2     5.3   970.8    0.00 
 271   22:40   0.00   64.3    35    0.9   280     2.3   970.7    0.00 
 271   22:50   0.00   64.7    35    0.5   284     2.4   970.7    0.00 
 271   23:00   0.00   64.1    36    0.6    11     2.0   970.7    0.00 
 271   23:10   0.00   64.1    36    0.5   244     1.5   970.6    0.00 
 271   23:20   0.00   64.6    36    0.0   228     0.6   970.5    0.00 
 271   23:30   0.00   64.3    36    0.5   256     1.5   970.5    0.00 
 271   23:40   0.00   64.0    36    0.7   254     1.5   970.5    0.00 
 271   23:50   0.00   63.6    36    1.4   347     4.6   970.5    0.00 
 272    0:00   0.00   63.3    36    2.2   342     5.1   970.4    0.00 
 272    0:10   0.00   64.3    35    0.6   336     3.4   970.4    0.00 
 272    0:20   0.00   64.0    36    0.3   244     1.5   970.4    0.00 
 272    0:30   0.00   63.5    36    0.5   228     1.3   970.4    0.00 
 272    0:40   0.00   63.1    37    0.0     0     0.0   970.4    0.00 
 272    0:50   0.00   63.0    37    0.0     6     0.5   970.3    0.00 
 272    1:00   0.00   63.7    36    1.8   345     4.4   970.3    0.00 
 272    1:10   0.00   63.6    36    1.1   263     2.7   970.3    0.00 
 272    1:20   0.00   63.8    36    0.1   249     0.8   970.3    0.00 
 272    1:30   0.00   62.7    37    0.3   257     1.4   970.3    0.00 
 272    1:40   0.00   61.9    38    0.2   257     1.6   970.2    0.00 
 272    1:50   0.00   62.3    37    1.3     6     3.2   970.2    0.00 
 272    2:00   0.00   61.7    38    0.2   209     1.3   970.1    0.00 
 272    2:10   0.00   61.8    38    0.4   261     1.5   970.0    0.00 
 272    2:20   0.00   61.5    38    0.1   338     1.5   970.0    0.00 
 272    2:30   0.00   61.8    38    0.5   272     1.5   970.0    0.00 
 272    2:40   0.00   61.7    38    0.2    65     1.8   970.0    0.00 
 272    2:50   0.00   60.8    40    0.2   115     1.1   969.9    0.00 
 272    3:00   0.00   61.1    39    0.0     0     0.0   969.8    0.00 
 272    3:10   0.00   61.3    39    1.1   249     2.5   969.8    0.00 
 272    3:20   0.00   62.0    38    0.5   240     2.1   969.7    0.00 
 272    3:30   0.00   62.4    37    0.8     6     3.1   969.8    0.00 
 272    3:40   0.00   62.3    38    0.7   257     2.0   969.8    0.00 
 272    3:50   0.00   62.1    37    0.7   250     1.7   969.8    0.00 
 272    4:00   0.00   62.3    37    0.5   339     2.3   969.9    0.00 
 272    4:10   0.00   61.1    39    0.7   350     2.1   970.0    0.00 
 272    4:20   0.00   61.6    38    0.9   342     2.8   970.0    0.00 
 272    4:30   0.00   62.1    38    0.5   273     1.5   970.1    0.00 
 272    4:40   0.00   61.1    39    0.0    38     1.1   970.1    0.00 
 272    4:50   0.00   61.3    38    1.9   266     3.8   970.1    0.00 
 272    5:00   0.00   61.9    38    1.7   290     3.7   970.1    0.00 
 272    5:10   0.00   62.7    37    3.3   356     5.6   970.2    0.00 
 272    5:20   0.00   62.5    37    1.0   323     4.4   970.2    0.00 
 272    5:30   0.00   62.8    37    0.2   282     1.0   970.2    0.00 
 272    5:40   0.00   62.5    37    0.6    54     1.8   970.3    0.00 
 272    5:50   0.00   61.6    38    0.8   355     2.6   970.3    0.00 
 272    6:00   0.00   61.3    39    1.2   342     3.5   970.3    0.00 
 272    6:10   0.00   61.2    39    0.4   238     1.8   970.4    0.00 
 272    6:20   0.01   62.0    38    0.1   267     0.9   970.4    0.00 
 272    6:30   0.02   62.4    37    1.0   356     2.5   970.5    0.00 
 272    6:40   0.04   62.5    38    1.0   250     2.0   970.6    0.00 
 272    6:50   0.09   64.3    36    0.1   217     0.7   970.6    0.00 
 272    7:00   0.13   66.9    34    0.4   277     2.4   970.7    0.00 
 272    7:10   0.16   69.6    31    0.4   187     1.5   971.0    0.00 
 272    7:20   0.21   71.8    30    0.5    95     1.6   971.1    0.00 
 272    7:30   0.24   74.0    28    0.2    68     1.2   971.3    0.00 
 272    7:40   0.27   76.9    26    0.0   130     0.6   971.5    0.00 
 272    7:50   0.29   78.3    25    0.8   153     2.3   971.6    0.00 
 272    8:00   0.32   78.9    24    1.9   126     3.1   971.7    0.00 
 272    8:10   0.35   79.0    24    2.6   125     4.8   971.8    0.00 
 272    8:20   0.38   79.8    24    3.2   120     5.4   971.9    0.00 
 272    8:30   0.42   79.7    24    3.2   136     5.4   971.9    0.00 
 272    8:40   0.45   80.2    24    3.5   152     5.1   971.9    0.00 
 272    8:50   0.49   83.2    22    3.9   165     8.0   972.0    0.00 
 272    9:00   0.51   84.3    21    4.5   208     6.8   971.9    0.00 
 272    9:10   0.54   83.6    22    5.3   218     8.8   971.9    0.00 
 272    9:20   0.57   83.8    22    5.8   230     9.6   971.9    0.00 
 272    9:30   0.59   84.7    22    6.0   208    10.7   972.0    0.00 
 272    9:40   0.61   84.1    23    7.7   209    13.0   971.9    0.00 
 272    9:50   0.62   84.4    23    6.8   203    11.5   971.9    0.00 
 272   10:00   0.64   85.0    24    7.9   198    12.7   971.9    0.00 
 272   10:10   0.66   84.8    24    6.7   210    13.4   971.9    0.00 
 272   10:20   0.69   85.2    25    8.0   203    12.0   971.8    0.00 
 272   10:30   0.70   84.8    26    9.0   220    13.4   971.8    0.00 
 272   10:40   0.71   85.6    25    7.8   200    12.7   971.7    0.00 
 272   10:50   0.73   85.2    26    8.5   230    14.0   971.6    0.00 
 272   11:00   0.74   86.0    25    9.0   216    15.3   971.5    0.00 
 272   11:10   0.72   86.9    24    6.4   220    11.8   971.5    0.00 
 272   11:20   0.77   87.8    24    6.3   187    13.0   971.4    0.00 
 272   11:30   0.78   88.1    24    8.2   183    14.3   971.4    0.00 
 272   11:40   0.77   89.0    23    7.1   200    13.0   971.4    0.00 
 272   11:50   0.79   87.8    24    6.9   223    14.8   971.3    0.00 
 272   12:00   0.78   89.2    23    7.5   202    14.0   971.3    0.00 
 272   12:10   0.77   88.4    24    8.3   211    15.2   971.2    0.00 
 272   12:20   0.76   88.3    24    9.7   195    16.1   971.1    0.00 
 272   12:30   0.75   89.1    24    7.3   212    14.3   971.0    0.00 
 272   12:40   0.75   88.5    24    8.7   225    15.2   971.0    0.00 
 272   12:50   0.74   89.2    23    7.8   208    13.0   970.9    0.00 
 272   13:00   0.73   88.8    24    8.3   229    14.2   970.8    0.00 
 272   13:10   0.72   88.9    23    7.7   195    12.9   970.8    0.00 
 272   13:20   0.70   89.2    23    6.9   236    13.4   970.7    0.00 
 272   13:30   0.69   90.2    22    6.0   207    13.8   970.6    0.00 
 272   13:40   0.67   89.9    23    9.1   215    15.3   970.5    0.00 
 272   13:50   0.65   90.2    22    9.9   209    15.5   970.5    0.00 
 272   14:00   0.63   90.2    22    8.5   195    14.3   970.6    0.00 
 272   14:10   0.61   90.9    22    8.1   213    16.2   970.6    0.00 
 272   14:20   0.58   89.2    23   12.0   208    18.7   970.5    0.00 
 272   14:30   0.56   88.4    24   11.9   209    17.4   970.6    0.00 
 272   14:40   0.53   88.4    24    9.4   210    17.8   970.7    0.00 
 272   14:50   0.51   88.2    25   10.4   221    17.0   970.7    0.00 
 272   15:00   0.48   88.3    26    9.3   223    15.7   970.6    0.00 
 272   15:10   0.45   87.8    26    9.8   231    16.0   970.6    0.00 
 272   15:20   0.42   88.1    26    8.8   226    13.3   970.7    0.00 
 272   15:30   0.39   88.3    26    7.0   232    13.4   970.7    0.00 
 272   15:40   0.36   88.2    26    7.4   206    12.1   970.7    0.00 
 272   15:50   0.33   88.2    25    5.7   245    10.5   970.7    0.00 
 272   16:00   0.30   87.9    25    7.7   256    11.8   970.8    0.00 
 272   16:10   0.27   86.7    26    7.8   253    11.8   970.8    0.00 
 272   16:20   0.24   86.8    26    7.1   250    11.9   970.9    0.00 
 272   16:30   0.20   85.8    28    7.3   244    11.4   970.9    0.00 
 272   16:40   0.17   85.6    28    6.9   244    10.4   971.1    0.00 
 272   16:50   0.14   85.1    28    6.1   238     9.9   971.1    0.00 
 272   17:00   0.11   84.7    29    6.2   248     8.6   971.2    0.00 
 272   17:10   0.09   83.8    30    7.9   244    11.9   971.3    0.00 
 272   17:20   0.06   82.8    31    6.5   239    11.0   971.4    0.00 
 272   17:30   0.03   82.0    33    5.4   248     8.7   971.5    0.00 
 272   17:40   0.01   80.9    38    5.3   285     9.9   971.6    0.00 
 272   17:50   0.00   79.9    39    3.8   294     6.6   971.7    0.00 
 272   18:00   0.00   79.2    40    4.0   306     6.8   971.7    0.00 
 272   18:10   0.00   78.5    41    1.8   315     4.1   971.8    0.00 
 272   18:20   0.00   77.1    42    1.5   271     2.0   972.0    0.00 
 272   18:30   0.00   76.3    43    1.5   284     2.5   972.0    0.00 
 272   18:40   0.00   75.5    44    2.4   289     3.1   972.1    0.00 
 272   18:50   0.00   74.3    45    1.9   302     2.6   972.3    0.00 
 272   19:00   0.00   72.6    48    1.3   339     3.4   972.4    0.00 
 272   19:10   0.00   70.4    49    4.5   359     6.0   972.5    0.00 
 272   19:20   0.00   70.0    50    2.2   318     4.2   972.6    0.00 
 272   19:30   0.00   69.6    50    3.0     0     4.5   972.6    0.00 

Return to Sedgwick Reserve graphs page.


Western Regional Climate Center,wrcc@dri.edu